Dange, Nigeria
Current Conditions -  °F | °C
As of 2:00 PM on Sunday 21 Dec 2014 (Local Time) from DRRN Reporting Station
Clear Clear  
Wind Chill: 90°   Ceiling: Unl
Heat Index: 90°   Visibility: 4mi
Dew Point: 27°   Wind: 13mph
Humidity: 10%   Direction: 110°ESE
Pressure: 29.94"   Gusts: NA
Location:  12.84°N, 5.35°E
Report Text: DRRN 211300Z 11011KT 070V140 6000 NSC 32/M03 Q1014 NOSIG
Loading
Personal Weather Stations






























Interactive Weather Map New forecast layout! Learn more

10-Day Weather Forecast

Advertisements
Track Severe Weather on mobile